createdAt,value
2022-08-02T00:00:37.276Z,96.90
2022-08-02T00:03:04.208Z,96.20
2022-08-02T00:05:31.188Z,96.70
2022-08-02T00:07:58.132Z,96.60
2022-08-02T00:10:25.989Z,97.30
2022-08-02T00:12:54.020Z,96.40
2022-08-02T00:15:22.135Z,96.70
2022-08-02T00:17:48.989Z,96.50
2022-08-02T00:20:16.029Z,96.40
2022-08-02T00:22:42.947Z,96.40
2022-08-02T00:25:09.924Z,96.40
2022-08-02T00:27:36.791Z,96.20
2022-08-02T00:30:04.387Z,96.90
2022-08-02T00:32:31.316Z,96.50
2022-08-02T00:34:58.411Z,96.80
2022-08-02T00:37:25.265Z,96.50
2022-08-02T00:39:52.132Z,96.50
2022-08-02T00:42:18.972Z,96.60
2022-08-02T00:44:45.830Z,96.60
2022-08-02T00:47:19.089Z,96.50
2022-08-02T00:49:46.907Z,96.60
2022-08-02T00:52:14.212Z,96.70
2022-08-02T00:54:41.351Z,97.10
2022-08-02T00:57:08.283Z,97.20
2022-08-02T00:59:35.151Z,97.00
2022-08-02T01:02:02.051Z,97.10
2022-08-02T01:04:31.402Z,97.30
2022-08-02T01:07:00.824Z,97.40
2022-08-02T01:09:27.986Z,97.20
2022-08-02T01:11:54.839Z,96.90
2022-08-02T01:14:24.658Z,97.50
2022-08-02T01:17:04.219Z,97.10
2022-08-02T01:19:58.942Z,97.10
2022-08-02T01:23:02.353Z,97.40
2022-08-02T01:25:55.163Z,97.30
2022-08-02T01:28:42.770Z,97.30
2022-08-02T01:31:29.636Z,97.50
2022-08-02T01:34:33.952Z,97.20
2022-08-02T01:37:20.303Z,96.60
2022-08-02T01:39:52.001Z,97.20
2022-08-02T01:42:21.445Z,96.50
2022-08-02T01:44:50.000Z,96.60
2022-08-02T01:47:26.306Z,96.70
2022-08-02T01:49:57.334Z,96.80
2022-08-02T01:52:27.235Z,97.00
2022-08-02T01:54:59.539Z,96.80
2022-08-02T01:57:31.412Z,97.00
2022-08-02T02:00:01.620Z,96.90
2022-08-02T02:02:31.806Z,96.80
2022-08-02T02:05:02.056Z,96.70
2022-08-02T02:07:32.179Z,97.10
2022-08-02T02:10:00.472Z,96.50
2022-08-02T02:12:28.709Z,96.60
2022-08-02T02:14:57.167Z,96.60
2022-08-02T02:18:11.442Z,96.50
2022-08-02T02:20:15.176Z,96.60
2022-08-02T02:22:42.691Z,96.70
2022-08-02T02:25:11.388Z,97.00
2022-08-02T02:27:44.282Z,96.60
2022-08-02T02:30:12.389Z,96.80
2022-08-02T02:32:41.776Z,96.90
2022-08-02T02:35:10.787Z,96.70
2022-08-02T02:37:38.994Z,96.90
2022-08-02T02:40:08.346Z,97.00
2022-08-02T02:42:35.853Z,97.00
2022-08-02T02:45:04.339Z,96.80
2022-08-02T02:47:40.716Z,96.90
2022-08-02T02:50:10.484Z,96.60
2022-08-02T02:52:40.093Z,96.80
2022-08-02T02:55:08.735Z,96.70
2022-08-02T02:57:37.770Z,96.60
2022-08-02T03:00:10.886Z,96.70
2022-08-02T03:02:39.317Z,96.70
2022-08-02T03:05:10.796Z,96.60
2022-08-02T03:07:38.688Z,96.50
2022-08-02T03:10:06.945Z,96.30
2022-08-02T03:12:36.823Z,96.90
2022-08-02T03:15:08.409Z,97.10
2022-08-02T03:17:43.426Z,96.60
2022-08-02T03:20:16.375Z,96.70
2022-08-02T03:22:44.826Z,96.70
2022-08-02T03:25:12.746Z,96.40
2022-08-02T03:27:40.296Z,96.40
2022-08-02T03:30:09.317Z,96.40
2022-08-02T03:32:37.250Z,96.60
2022-08-02T03:35:06.711Z,96.60
2022-08-02T03:37:35.861Z,96.60
2022-08-02T03:40:05.587Z,96.80
2022-08-02T03:42:32.437Z,96.90
2022-08-02T03:45:03.766Z,96.90
2022-08-02T03:47:33.931Z,96.80
2022-08-02T03:50:02.166Z,96.90
2022-08-02T03:52:29.975Z,96.60
2022-08-02T03:54:57.465Z,97.00
2022-08-02T03:57:24.676Z,97.20
2022-08-02T03:59:51.631Z,96.70
2022-08-02T04:02:18.518Z,96.80
2022-08-02T04:04:45.349Z,97.10
2022-08-02T04:07:12.203Z,97.00
2022-08-02T04:09:39.083Z,97.00
2022-08-02T04:12:06.303Z,96.80
2022-08-02T04:14:36.805Z,96.80
2022-08-02T04:17:08.717Z,96.80
2022-08-02T04:19:40.788Z,96.60
2022-08-02T04:22:14.541Z,96.70
2022-08-02T04:24:45.344Z,96.90
2022-08-02T04:27:48.970Z,96.90
2022-08-02T04:30:06.146Z,96.90
2022-08-02T04:32:33.537Z,96.80
2022-08-02T04:38:09.783Z,96.80
2022-08-02T04:40:36.591Z,96.50
2022-08-02T04:43:03.537Z,96.60
2022-08-02T04:45:30.975Z,96.70
2022-08-02T04:48:06.063Z,96.60
2022-08-02T04:50:33.824Z,96.50
2022-08-02T04:53:00.867Z,96.70
2022-08-02T04:55:29.104Z,96.60
2022-08-02T04:57:57.784Z,96.40
2022-08-02T05:00:26.886Z,96.60
2022-08-02T05:02:55.853Z,96.90
2022-08-02T05:05:22.935Z,97.20
2022-08-02T05:07:49.788Z,96.80
2022-08-02T05:10:16.660Z,96.80
2022-08-02T05:12:43.596Z,96.70
2022-08-02T05:15:13.063Z,96.90
2022-08-02T05:17:45.198Z,97.00
2022-08-02T05:20:18.950Z,97.20
2022-08-02T05:22:46.223Z,97.10
2022-08-02T05:25:13.246Z,97.00
2022-08-02T05:27:40.168Z,97.30
2022-08-02T05:30:08.356Z,97.20
2022-08-02T05:32:35.652Z,97.10
2022-08-02T05:35:03.064Z,97.10
2022-08-02T05:37:31.958Z,97.20
2022-08-02T05:39:59.309Z,97.30
2022-08-02T05:42:31.560Z,97.00
2022-08-02T05:44:58.754Z,96.90
2022-08-02T05:47:26.079Z,97.00
2022-08-02T05:49:53.182Z,97.10
2022-08-02T05:52:20.964Z,97.20
2022-08-02T05:55:07.271Z,97.40
2022-08-02T05:57:55.404Z,96.90
2022-08-02T06:00:22.949Z,97.20
2022-08-02T06:03:07.764Z,97.10
2022-08-02T06:05:40.374Z,97.10
2022-08-02T06:08:10.927Z,97.10
2022-08-02T06:10:39.772Z,96.90
2022-08-02T06:13:14.459Z,97.10
2022-08-02T06:15:53.175Z,96.80
2022-08-02T06:18:28.565Z,97.10
2022-08-02T06:22:30.007Z,97.20
2022-08-02T06:23:57.660Z,97.20
2022-08-02T06:26:28.473Z,97.40
2022-08-02T06:28:57.934Z,97.20
2022-08-02T06:31:25.206Z,97.30
2022-08-02T06:33:52.368Z,97.20
2022-08-02T06:36:37.375Z,96.90
2022-08-02T06:39:31.892Z,97.00
2022-08-02T06:42:02.852Z,96.90
2022-08-02T06:44:48.112Z,97.10
2022-08-02T06:47:16.754Z,96.70
2022-08-02T06:49:52.266Z,96.90
2022-08-02T06:52:28.881Z,96.60
2022-08-02T06:54:57.965Z,96.70
2022-08-02T06:57:24.922Z,96.70
2022-08-02T06:59:51.855Z,96.80
2022-08-02T07:02:18.765Z,96.70
2022-08-02T07:04:45.814Z,96.50
2022-08-02T07:07:12.791Z,96.40
2022-08-02T07:09:39.846Z,96.60
2022-08-02T07:12:24.186Z,96.40
2022-08-02T07:14:51.222Z,95.90
2022-08-02T07:17:18.122Z,96.00
2022-08-02T07:19:45.025Z,96.10
2022-08-02T07:22:13.254Z,96.10
2022-08-02T07:24:40.903Z,96.00
2022-08-02T07:27:12.267Z,96.40
2022-08-02T07:29:45.187Z,96.30
2022-08-02T07:32:13.521Z,95.80
2022-08-02T07:34:40.721Z,95.60
2022-08-02T07:37:12.518Z,95.60
2022-08-02T07:39:56.392Z,95.80
2022-08-02T07:42:23.591Z,95.40
2022-08-02T07:44:50.825Z,95.40
2022-08-02T07:47:17.871Z,95.50
2022-08-02T07:49:45.155Z,95.50
2022-08-02T07:52:12.512Z,95.70
2022-08-02T07:54:39.567Z,95.40
2022-08-02T07:57:06.479Z,95.10
2022-08-02T07:59:33.720Z,95.70
2022-08-02T08:02:00.602Z,96.00
2022-08-02T08:04:27.459Z,95.30
2022-08-02T08:06:54.321Z,95.00
2022-08-02T08:09:21.200Z,95.30
2022-08-02T08:11:48.353Z,95.00
2022-08-02T08:14:17.008Z,95.10
2022-08-02T08:16:44.335Z,95.40
2022-08-02T08:19:11.223Z,94.80
2022-08-02T08:21:38.103Z,94.90
2022-08-02T08:24:05.357Z,94.60
2022-08-02T08:26:32.287Z,94.80
2022-08-02T08:28:59.257Z,94.30
2022-08-02T08:31:26.155Z,94.00
2022-08-02T08:33:53.963Z,94.50
2022-08-02T08:36:21.528Z,94.10
2022-08-02T08:38:50.249Z,93.70
2022-08-02T08:41:20.518Z,93.40
2022-08-02T08:43:52.882Z,93.40
2022-08-02T08:46:27.291Z,93.90
2022-08-02T08:49:11.360Z,94.40
2022-08-02T08:51:41.987Z,94.20
2022-08-02T08:54:12.646Z,94.00
2022-08-02T08:56:40.696Z,94.30
2022-08-02T08:59:07.580Z,94.00
2022-08-02T09:01:49.786Z,94.00
2022-08-02T09:04:19.381Z,93.40
2022-08-02T09:06:46.237Z,92.90
2022-08-02T09:09:13.556Z,93.30
2022-08-02T09:11:40.470Z,92.50
2022-08-02T09:14:07.319Z,93.30
2022-08-02T09:16:39.675Z,92.50
2022-08-02T09:19:25.304Z,92.90
2022-08-02T09:22:00.974Z,93.30
2022-08-02T09:24:31.845Z,93.60
2022-08-02T09:26:58.908Z,93.40
2022-08-02T09:29:26.770Z,93.60
2022-08-02T09:32:03.381Z,93.10
2022-08-02T09:34:50.851Z,93.00
2022-08-02T09:37:31.027Z,92.70
2022-08-02T09:40:03.401Z,93.00
2022-08-02T09:42:30.944Z,93.00
2022-08-02T09:45:02.190Z,93.00
2022-08-02T09:47:31.064Z,92.70
2022-08-02T09:49:58.936Z,92.70
2022-08-02T09:52:36.902Z,91.60
2022-08-02T09:55:11.868Z,92.30
2022-08-02T09:57:38.914Z,92.50
2022-08-02T10:00:14.958Z,92.40
2022-08-02T10:03:14.266Z,92.30
2022-08-02T10:06:01.140Z,91.50
2022-08-02T10:08:33.054Z,91.80
2022-08-02T10:11:01.013Z,91.80
2022-08-02T10:13:34.736Z,91.90
2022-08-02T10:16:02.828Z,92.00
2022-08-02T10:18:45.634Z,91.40
2022-08-02T10:21:20.364Z,90.40
2022-08-02T10:23:49.811Z,90.30
2022-08-02T10:26:19.172Z,90.40
2022-08-02T10:28:50.140Z,90.70
2022-08-02T10:31:22.551Z,90.90
2022-08-02T10:33:52.963Z,90.50
2022-08-02T10:36:21.296Z,90.50
2022-08-02T10:38:48.407Z,90.60
2022-08-02T10:41:15.372Z,90.30
2022-08-02T10:43:44.687Z,89.80
2022-08-02T10:46:24.877Z,90.20
2022-08-02T10:52:02.423Z,89.50
2022-08-02T10:54:43.083Z,90.50
2022-08-02T10:57:22.245Z,90.40
2022-08-02T10:59:51.237Z,90.10
2022-08-02T11:02:38.686Z,90.20
2022-08-02T11:05:13.837Z,90.50
2022-08-02T11:07:41.957Z,90.60
2022-08-02T11:10:26.286Z,90.20
2022-08-02T11:13:14.441Z,90.30
2022-08-02T11:15:53.747Z,90.40
2022-08-02T11:18:22.335Z,90.40
2022-08-02T11:21:25.506Z,90.50
2022-08-02T11:23:52.962Z,89.80
2022-08-02T11:26:31.809Z,89.60
2022-08-02T11:29:03.633Z,90.20
2022-08-02T11:31:42.614Z,89.40
2022-08-02T11:34:10.665Z,90.00
2022-08-02T11:36:57.514Z,88.90
2022-08-02T11:39:24.462Z,89.00
2022-08-02T11:41:57.889Z,88.10
2022-08-02T11:44:27.129Z,88.40
2022-08-02T11:46:55.859Z,89.20
2022-08-02T11:49:23.407Z,87.80
2022-08-02T11:52:08.059Z,87.10
2022-08-02T11:54:37.935Z,87.20
2022-08-02T11:57:16.882Z,87.00
2022-08-02T11:59:48.118Z,86.10
2022-08-02T12:02:17.092Z,86.70
2022-08-02T12:04:57.921Z,86.50
2022-08-02T12:07:36.110Z,86.10
2022-08-02T12:10:18.898Z,85.50
2022-08-02T12:13:00.412Z,87.70
2022-08-02T12:15:34.318Z,89.60
2022-08-02T12:18:20.533Z,89.80
2022-08-02T12:20:47.438Z,88.00
2022-08-02T12:23:14.532Z,87.80
2022-08-02T12:25:41.666Z,86.70
2022-08-02T12:28:19.928Z,87.60
2022-08-02T12:31:06.723Z,87.20
2022-08-02T12:33:53.980Z,87.20
2022-08-02T12:36:22.059Z,87.10
2022-08-02T12:39:00.617Z,86.10
2022-08-02T12:41:31.095Z,86.30
2022-08-02T12:43:59.052Z,87.60
2022-08-02T12:46:27.319Z,86.60
2022-08-02T12:49:16.832Z,87.60
2022-08-02T12:51:51.395Z,86.50
2022-08-02T12:54:38.714Z,85.10
2022-08-02T12:57:13.515Z,85.80
2022-08-02T12:59:42.514Z,87.90
2022-08-02T13:02:12.246Z,89.00
2022-08-02T13:04:40.161Z,87.40
2022-08-02T13:07:07.143Z,86.30
2022-08-02T13:09:39.148Z,86.60
2022-08-02T13:12:07.949Z,86.40
2022-08-02T13:14:40.363Z,86.70
2022-08-02T13:17:09.673Z,87.70
2022-08-02T13:19:37.116Z,85.90
2022-08-02T13:22:04.498Z,90.00
2022-08-02T13:24:39.588Z,89.10
2022-08-02T13:27:09.432Z,88.00
2022-08-02T13:29:37.828Z,89.10
2022-08-02T13:32:04.841Z,87.00
2022-08-02T13:34:31.761Z,87.40
2022-08-02T13:36:58.604Z,86.60
2022-08-02T13:39:25.477Z,87.80
2022-08-02T13:41:52.887Z,86.40
2022-08-02T13:44:19.791Z,86.50
2022-08-02T13:46:46.941Z,85.70
2022-08-02T13:49:18.828Z,85.60
2022-08-02T13:51:47.733Z,85.80
2022-08-02T13:54:15.606Z,87.30
2022-08-02T13:56:42.601Z,87.50
2022-08-02T13:59:54.696Z,86.80
2022-08-02T14:01:57.379Z,88.80
2022-08-02T14:04:25.465Z,86.40
2022-08-02T14:06:52.461Z,85.60
2022-08-02T14:09:19.445Z,86.30
2022-08-02T14:11:46.947Z,87.70
2022-08-02T14:14:16.648Z,86.90
2022-08-02T14:16:44.974Z,86.10
2022-08-02T14:19:15.548Z,85.60
2022-08-02T14:21:47.058Z,88.90
2022-08-02T14:24:19.325Z,88.90
2022-08-02T14:26:47.401Z,87.10
2022-08-02T14:29:15.602Z,90.20
2022-08-02T14:31:44.836Z,90.50
2022-08-02T14:34:13.204Z,90.20
2022-08-02T14:36:40.159Z,88.60
2022-08-02T14:39:07.589Z,88.10
2022-08-02T14:41:58.261Z,87.20
2022-08-02T14:44:23.590Z,86.10
2022-08-02T14:46:52.002Z,85.80
2022-08-02T14:49:24.849Z,87.50
2022-08-02T14:51:56.498Z,88.30
2022-08-02T14:54:28.151Z,87.50
2022-08-02T14:56:58.928Z,88.00
2022-08-02T14:59:25.867Z,88.00
2022-08-02T15:01:52.965Z,90.70
2022-08-02T15:04:20.186Z,91.10
2022-08-02T15:06:47.091Z,89.90
2022-08-02T15:09:14.024Z,87.50
2022-08-02T15:11:48.283Z,88.10
2022-08-02T15:14:20.323Z,88.30
2022-08-02T15:16:59.474Z,87.40
2022-08-02T15:19:56.704Z,85.80
2022-08-02T15:22:19.011Z,86.40
2022-08-02T15:24:47.464Z,87.50
2022-08-02T15:27:15.104Z,85.70
2022-08-02T15:29:43.595Z,85.10
2022-08-02T15:32:11.480Z,84.90
2022-08-02T15:34:38.840Z,84.80
2022-08-02T15:37:05.877Z,85.20
2022-08-02T15:39:32.829Z,85.90
2022-08-02T15:41:59.675Z,89.30
2022-08-02T15:44:26.531Z,88.40
2022-08-02T15:46:54.488Z,89.10
2022-08-02T15:49:24.083Z,88.20
2022-08-02T15:51:54.637Z,87.80
2022-08-02T15:54:21.591Z,87.20
2022-08-02T15:56:48.496Z,87.90
2022-08-02T15:59:15.457Z,89.60
2022-08-02T16:01:46.523Z,88.40
2022-08-02T16:04:15.346Z,88.60
2022-08-02T16:06:42.636Z,86.30
2022-08-02T16:09:09.725Z,83.60
2022-08-02T16:11:36.604Z,84.20
2022-08-02T16:14:04.216Z,84.20
2022-08-02T16:16:33.444Z,83.80
2022-08-02T16:19:46.153Z,84.90
2022-08-02T16:21:50.453Z,83.70
2022-08-02T16:24:17.379Z,83.80
2022-08-02T16:26:44.369Z,84.10
2022-08-02T16:29:11.337Z,83.10
2022-08-02T16:31:42.588Z,82.90
2022-08-02T16:34:10.483Z,83.40
2022-08-02T16:36:38.013Z,83.00
2022-08-02T16:39:05.527Z,83.30
2022-08-02T16:41:51.065Z,83.00
2022-08-02T16:44:29.554Z,83.20
2022-08-02T16:47:00.974Z,83.20
2022-08-02T16:50:07.151Z,82.90
2022-08-02T16:52:27.053Z,83.10
2022-08-02T16:54:53.962Z,82.40
2022-08-02T16:57:21.169Z,83.20
2022-08-02T16:59:57.480Z,83.40
2022-08-02T17:02:28.452Z,83.10
2022-08-02T17:04:55.776Z,83.60
2022-08-02T17:08:07.695Z,83.00
2022-08-02T17:10:10.969Z,83.30
2022-08-02T17:12:38.863Z,82.70
2022-08-02T17:16:07.713Z,82.80
2022-08-02T17:17:54.336Z,83.10
2022-08-02T17:20:21.281Z,84.30
2022-08-02T17:22:51.174Z,85.80
2022-08-02T17:25:18.112Z,84.10
2022-08-02T17:27:46.045Z,85.30
2022-08-02T17:30:13.978Z,87.60
2022-08-02T17:32:45.568Z,86.00
2022-08-02T17:35:12.898Z,87.10
2022-08-02T17:37:42.959Z,87.60
2022-08-02T17:40:21.764Z,87.70
2022-08-02T17:42:50.964Z,90.00
2022-08-02T17:45:25.700Z,87.80
2022-08-02T17:48:05.699Z,88.40
2022-08-02T17:50:34.362Z,87.20
2022-08-02T17:53:01.914Z,89.40
2022-08-02T17:55:31.051Z,89.30
2022-08-02T17:57:59.457Z,90.00
2022-08-02T18:00:37.760Z,88.80
2022-08-02T18:03:08.026Z,89.90
2022-08-02T18:05:40.271Z,87.20
2022-08-02T18:08:22.895Z,87.30
2022-08-02T18:10:52.518Z,87.60
2022-08-02T18:13:19.732Z,89.20
2022-08-02T18:15:46.665Z,87.20
2022-08-02T18:18:14.836Z,86.20
2022-08-02T18:20:50.776Z,87.90
2022-08-02T18:23:17.634Z,86.40
2022-08-02T18:25:47.706Z,87.00
2022-08-02T18:28:16.424Z,87.00
2022-08-02T18:30:43.866Z,86.30
2022-08-02T18:34:00.312Z,85.30
2022-08-02T18:35:58.060Z,85.90
2022-08-02T18:38:27.825Z,86.30
2022-08-02T18:40:55.318Z,86.90
2022-08-02T18:43:25.097Z,85.80
2022-08-02T18:46:05.975Z,86.30
2022-08-02T18:48:35.331Z,87.10
2022-08-02T18:51:03.428Z,86.50
2022-08-02T18:53:41.466Z,87.30
2022-08-02T18:56:20.446Z,87.70
2022-08-02T18:58:52.783Z,87.60
2022-08-02T19:01:21.820Z,89.00
2022-08-02T19:04:00.162Z,87.80
2022-08-02T19:06:27.666Z,89.50
2022-08-02T19:09:05.350Z,90.50
2022-08-02T19:11:34.905Z,90.00
2022-08-02T19:14:02.483Z,90.60
2022-08-02T19:16:36.603Z,90.50
2022-08-02T19:19:04.968Z,90.60
2022-08-02T19:22:16.097Z,91.10
2022-08-02T19:24:19.146Z,91.00
2022-08-02T19:26:51.975Z,91.30
2022-08-02T19:29:42.197Z,91.00
2022-08-02T19:32:41.213Z,91.00
2022-08-02T19:34:58.617Z,91.40
2022-08-02T19:37:36.993Z,91.70
2022-08-02T19:40:07.986Z,91.60
2022-08-02T19:44:22.906Z,91.60
2022-08-02T19:45:49.102Z,91.50
2022-08-02T19:48:15.592Z,91.70
2022-08-02T19:50:44.290Z,91.70
2022-08-02T19:53:17.334Z,91.60
2022-08-02T19:56:01.176Z,91.70
2022-08-02T19:58:31.084Z,91.90
2022-08-02T20:00:59.663Z,91.70
2022-08-02T20:03:51.864Z,92.10
2022-08-02T20:06:17.841Z,92.40
2022-08-02T20:08:52.860Z,92.60
2022-08-02T20:11:24.663Z,92.80
2022-08-02T20:13:52.706Z,92.90
2022-08-02T20:16:27.296Z,93.00
2022-08-02T20:18:56.342Z,92.70
2022-08-02T20:21:35.969Z,92.70
2022-08-02T20:24:09.977Z,92.70
2022-08-02T20:26:47.718Z,92.70
2022-08-02T20:29:42.812Z,93.10
2022-08-02T20:32:04.153Z,93.30
2022-08-02T20:34:31.354Z,93.40
2022-08-02T20:37:00.603Z,93.40
2022-08-02T20:39:48.102Z,93.50
2022-08-02T20:42:24.005Z,93.60
2022-08-02T20:44:55.238Z,92.60
2022-08-02T20:47:28.300Z,92.90
2022-08-02T20:50:31.722Z,93.40
2022-08-02T20:53:03.241Z,93.30
2022-08-02T20:55:32.042Z,93.70
2022-08-02T20:58:01.680Z,93.20
2022-08-02T21:00:30.361Z,93.50
2022-08-02T21:02:57.992Z,93.70
2022-08-02T21:05:55.226Z,93.90
2022-08-02T21:08:15.124Z,93.90
2022-08-02T21:10:50.337Z,94.20
2022-08-02T21:13:22.332Z,94.40
2022-08-02T21:15:51.430Z,94.60
2022-08-02T21:21:05.620Z,94.70
2022-08-02T21:23:36.295Z,95.00
2022-08-02T21:26:04.213Z,95.10
2022-08-02T21:28:43.336Z,95.30
2022-08-02T21:31:11.215Z,95.40
2022-08-02T21:33:57.936Z,95.40
2022-08-02T21:36:32.578Z,95.60
2022-08-02T21:39:05.927Z,95.60
2022-08-02T21:41:38.548Z,95.70
2022-08-02T21:44:06.496Z,95.80
2022-08-02T21:46:33.675Z,94.90
2022-08-02T21:49:02.123Z,94.70
2022-08-02T21:51:29.210Z,94.90
2022-08-02T21:54:17.561Z,95.00
2022-08-02T21:56:52.106Z,93.40
2022-08-02T21:59:26.181Z,93.00
2022-08-02T22:01:56.725Z,93.00
2022-08-02T22:04:25.712Z,92.60
2022-08-02T22:06:53.641Z,92.70
2022-08-02T22:09:44.107Z,93.00
2022-08-02T22:12:10.366Z,93.40
2022-08-02T22:14:40.008Z,93.90
2022-08-02T22:17:13.848Z,94.20
2022-08-02T22:19:52.735Z,94.40
2022-08-02T22:22:28.369Z,94.60
2022-08-02T22:24:56.508Z,94.70
2022-08-02T22:27:24.223Z,94.80
2022-08-02T22:30:11.471Z,94.90
2022-08-02T22:32:56.949Z,95.00
2022-08-02T22:35:23.882Z,95.10
2022-08-02T22:38:14.898Z,95.40
2022-08-02T22:40:37.984Z,95.30
2022-08-02T22:43:06.260Z,95.50
2022-08-02T22:45:37.494Z,95.50
2022-08-02T22:48:05.082Z,95.50
2022-08-02T22:50:33.110Z,95.50
2022-08-02T22:53:00.346Z,95.70
2022-08-02T22:55:32.313Z,95.70
2022-08-02T22:58:00.080Z,95.90
2022-08-02T22:59:12.142Z,94.70
2022-08-02T23:00:26.980Z,95.80
2022-08-02T23:02:53.880Z,95.90
2022-08-02T23:05:21.763Z,95.80
2022-08-02T23:07:48.663Z,95.80
2022-08-02T23:10:15.523Z,95.90
2022-08-02T23:12:42.409Z,96.00
2022-08-02T23:15:10.054Z,96.10
2022-08-02T23:17:55.308Z,96.10
2022-08-02T23:20:22.749Z,96.10
2022-08-02T23:22:49.614Z,96.20
2022-08-02T23:25:16.508Z,96.20
2022-08-02T23:27:50.235Z,96.20
2022-08-02T23:30:18.871Z,96.20
2022-08-02T23:32:46.858Z,96.20
2022-08-02T23:35:17.251Z,96.40
2022-08-02T23:37:59.183Z,96.80
2022-08-02T23:40:40.083Z,96.40
2022-08-02T23:43:14.396Z,96.60
2022-08-02T23:45:46.369Z,96.70
2022-08-02T23:48:13.678Z,96.80
2022-08-02T23:50:40.571Z,96.80
2022-08-02T23:53:07.436Z,96.80
2022-08-02T23:55:34.570Z,96.80
2022-08-02T23:58:01.403Z,96.60
